Deptford Township, New Jersey
Current Conditions -  °F | °C
As of 9:54 AM on Wednesday 26 Nov 2014 (Local Time) from KPHL Reporting Station
Moderate Rain Moderate Rain  
Wind Chill: 30°   Ceiling: 1400
Heat Index: 38°   Visibility: 2.5mi
Dew Point: 35°   Wind: 13mph
Humidity: 89%   Direction: 50°NE
Pressure: 30.12"   Gusts: NA
Location:  39.8266°N, 75.1276°W
Report Text: KPHL 261454Z 05011KT 2 1/2SM RA BR SCT008 BKN014 OVC022 03/02 A3012 RMK AO2 SLP199 P0012 60030 T00330017 53001 $
Loading
Personal Weather Stations






























Interactive Weather Map New forecast layout! Learn more

10-Day Weather Forecast

Advertisements
Track Severe Weather on mobile